Ashland, Alabama
Current Conditions -  °F | °C
As of 3:53 AM on Sunday 26 Oct 2014 (Local Time) from KANB Reporting Station
Haze Haze  
Wind Chill: 11°   Ceiling: Unl
Heat Index: 11°   Visibility: 5mi
Dew Point:   Wind: 3mph
Humidity: 92%   Direction: 250°WSW
Pressure: 30.02"   Gusts: NA
Location:  33.27°N, 85.84°W
Report Text: KANB 260853Z AUTO 25003KT 5SM BR CLR 11/09 A3002 RMK AO2 SLP162 T01060094 58009
Loading
Personal Weather Stations






























Interactive Weather Map
Tropical Storm Tracking
New forecast layout! Learn more

10-Day Weather Forecast

Advertisements
Track Severe Weather on mobile